Time;durP1;ratioP1;P1;durP2;ratioP2;P2;SDS_P1;SDS_P2;PMS_P1;PMS_P2;Temp;Humidity;BMP_temperature;BMP_pressure;BME280_temperature;BME280_humidity;BME280_pressure;Samples;Min_cycle;Max_cycle;Signal;HPM_P1;HPM_P2
2021/04/10 00:00:39;;;;;;;31.60;23.70;;;;;;;;;;5036857;28;20238;-79
2021/04/10 00:03:06;;;;;;;31.33;24.03;;;;;;;;;;5042797;28;20363;-79
2021/04/10 00:05:33;;;;;;;30.37;24.50;;;;;;;;;;5042274;28;20246;-79
2021/04/10 00:08:05;;;;;;;36.00;26.77;;;;;;;;;;5051922;28;20242;-80
2021/04/10 00:10:35;;;;;;;33.73;25.57;;;;;;;;;;5040689;28;20579;-80
2021/04/10 00:13:01;;;;;;;35.77;25.67;;;;;;;;;;5047951;28;20248;-79
2021/04/10 00:15:29;;;;;;;36.57;26.40;;;;;;;;;;5032962;28;20639;-80
2021/04/10 00:17:56;;;;;;;31.17;25.50;;;;;;;;;;5032451;28;20204;-79
2021/04/10 00:20:26;;;;;;;36.70;25.93;;;;;;;;;;5032162;28;20290;-80
2021/04/10 00:22:55;;;;;;;31.93;24.93;;;;;;;;;;5037285;28;20286;-79
2021/04/10 00:25:22;;;;;;;33.63;25.70;;;;;;;;;;5031608;28;20287;-79
2021/04/10 00:27:49;;;;;;;36.47;27.30;;;;;;;;;;5031906;28;20315;-79
2021/04/10 00:30:19;;;;;;;33.20;25.73;;;;;;;;;;5039738;28;20203;-79
2021/04/10 00:32:45;;;;;;;32.63;25.70;;;;;;;;;;5051553;28;20239;-79
2021/04/10 00:35:13;;;;;;;32.87;24.17;;;;;;;;;;5051492;28;20288;-79
2021/04/10 00:37:42;;;;;;;30.17;24.53;;;;;;;;;;5058284;28;20229;-79
2021/04/10 00:40:10;;;;;;;33.37;26.87;;;;;;;;;;5072173;28;20786;-79
2021/04/10 00:42:37;;;;;;;34.07;26.60;;;;;;;;;;5049163;28;20239;-79
2021/04/10 00:45:08;;;;;;;35.30;27.27;;;;;;;;;;5046327;28;20287;-79
2021/04/10 00:47:35;;;;;;;33.13;26.93;;;;;;;;;;5072890;28;20306;-79
2021/04/10 00:50:04;;;;;;;33.37;26.70;;;;;;;;;;5075959;28;20202;-79
2021/04/10 00:52:34;;;;;;;33.33;26.53;;;;;;;;;;5075521;28;20230;-79
2021/04/10 00:55:01;;;;;;;35.73;26.97;;;;;;;;;;5072246;28;20214;-79
2021/04/10 00:57:30;;;;;;;34.77;26.53;;;;;;;;;;5070572;28;20204;-78
2021/04/10 00:59:59;;;;;;;33.03;26.30;;;;;;;;;;5067386;28;20341;-80
2021/04/10 01:02:27;;;;;;;33.43;25.70;;;;;;;;;;5066293;28;20229;-79
2021/04/10 01:04:57;;;;;;;29.87;25.03;;;;;;;;;;5035529;28;20295;-79
2021/04/10 01:07:26;;;;;;;31.47;25.37;;;;;;;;;;5056971;28;20304;-79
2021/04/10 01:09:53;;;;;;;29.00;24.60;;;;;;;;;;5068862;28;20216;-79
2021/04/10 01:12:27;;;;;;;30.17;24.80;;;;;;;;;;5035693;28;20251;-79
2021/04/10 01:14:56;;;;;;;28.53;23.87;;;;;;;;;;5035438;28;20289;-80
2021/04/10 01:17:28;;;;;;;30.23;24.53;;;;;;;;;;5053318;28;20289;-79
2021/04/10 01:20:06;;;;;;;28.80;24.07;;;;;;;;;;5074892;28;20620;-80
2021/04/10 01:22:46;;;;;;;27.77;22.17;;;;;;;;;;5074834;28;20517;-79
2021/04/10 01:25:20;;;;;;;24.93;21.50;;;;;;;;;;5063314;28;20273;-79
2021/04/10 01:27:51;;;;;;;25.67;21.07;;;;;;;;;;5037999;28;20312;-79
2021/04/10 01:30:20;;;;;;;25.83;21.97;;;;;;;;;;5055345;28;20634;-79
2021/04/10 01:32:52;;;;;;;24.40;21.23;;;;;;;;;;5056738;28;20321;-79
2021/04/10 01:35:19;;;;;;;24.67;20.37;;;;;;;;;;5058075;28;20689;-79
2021/04/10 01:37:52;;;;;;;24.37;20.73;;;;;;;;;;5054963;28;20230;-79
2021/04/10 01:40:21;;;;;;;24.07;19.87;;;;;;;;;;5051008;28;20196;-79
2021/04/10 01:42:48;;;;;;;23.83;20.27;;;;;;;;;;5037006;28;20227;-79
2021/04/10 01:45:18;;;;;;;21.40;19.10;;;;;;;;;;5044707;28;20726;-79
2021/04/10 01:47:47;;;;;;;21.93;19.50;;;;;;;;;;5035772;28;20310;-87
2021/04/10 01:50:17;;;;;;;21.77;18.00;;;;;;;;;;5064106;28;20218;-88
2021/04/10 01:52:45;;;;;;;21.40;18.67;;;;;;;;;;5045894;28;20243;-87
2021/04/10 01:55:14;;;;;;;20.00;17.57;;;;;;;;;;5039485;28;20229;-87
2021/04/10 01:57:45;;;;;;;20.47;17.33;;;;;;;;;;5037489;28;20226;-87
2021/04/10 02:00:15;;;;;;;19.13;16.83;;;;;;;;;;5040092;28;20230;-86
2021/04/10 02:02:48;;;;;;;18.90;14.60;;;;;;;;;;5038429;28;20299;-87
2021/04/10 02:05:19;;;;;;;16.63;13.97;;;;;;;;;;5038123;28;20306;-85
2021/04/10 02:07:52;;;;;;;17.57;14.97;;;;;;;;;;5048684;28;20633;-85
2021/04/10 02:10:22;;;;;;;15.77;13.87;;;;;;;;;;5059259;28;20191;-85
2021/04/10 02:12:55;;;;;;;15.37;13.50;;;;;;;;;;5054249;28;20221;-85
2021/04/10 02:15:28;;;;;;;15.23;12.00;;;;;;;;;;5038170;28;20667;-85
2021/04/10 02:17:59;;;;;;;14.03;12.30;;;;;;;;;;5033953;28;20337;-84
2021/04/10 02:20:34;;;;;;;13.97;12.47;;;;;;;;;;5048063;28;20713;-85
2021/04/10 02:23:07;;;;;;;13.87;11.80;;;;;;;;;;5054961;28;20200;-84
2021/04/10 02:25:40;;;;;;;13.47;11.47;;;;;;;;;;5062418;28;20196;-86
2021/04/10 02:28:12;;;;;;;13.63;12.17;;;;;;;;;;5062380;28;20257;-85
2021/04/10 02:30:44;;;;;;;12.97;10.93;;;;;;;;;;5034061;28;20236;-85
2021/04/10 02:33:19;;;;;;;11.23;10.03;;;;;;;;;;5033947;28;20231;-85
2021/04/10 02:35:52;;;;;;;13.23;11.67;;;;;;;;;;5033997;28;20189;-85
2021/04/10 02:38:26;;;;;;;12.97;10.37;;;;;;;;;;5056697;28;20211;-87
2021/04/10 02:41:00;;;;;;;11.90;10.63;;;;;;;;;;5056046;28;20283;-86
2021/04/10 02:43:32;;;;;;;13.50;12.10;;;;;;;;;;5056869;28;20200;-87
2021/04/10 02:46:03;;;;;;;12.57;10.93;;;;;;;;;;5052454;28;20286;-87
2021/04/10 02:48:37;;;;;;;12.83;11.43;;;;;;;;;;5054990;28;20285;-86
2021/04/10 02:51:09;;;;;;;14.27;11.90;;;;;;;;;;5035002;28;20241;-87
2021/04/10 02:53:40;;;;;;;14.30;12.00;;;;;;;;;;5035784;28;20216;-87
2021/04/10 02:56:11;;;;;;;12.30;11.00;;;;;;;;;;5035003;28;20257;-87
2021/04/10 02:58:42;;;;;;;12.17;10.87;;;;;;;;;;5052076;28;20203;-87
2021/04/10 03:01:12;;;;;;;12.23;10.57;;;;;;;;;;5054978;28;20192;-85
2021/04/10 03:03:42;;;;;;;13.47;11.03;;;;;;;;;;5047836;28;20211;-85
2021/04/10 03:06:12;;;;;;;12.97;11.13;;;;;;;;;;5043189;28;20201;-85
2021/04/10 03:08:41;;;;;;;12.80;10.80;;;;;;;;;;5035382;28;20248;-85
2021/04/10 03:11:11;;;;;;;12.47;11.17;;;9.10;99.90;;;;;;5040347;28;20229;-86
2021/04/10 03:13:40;;;;;;;12.33;11.10;;;9.00;99.90;;;;;;5046039;28;20600;-85
2021/04/10 03:16:08;;;;;;;12.63;10.57;;;;;;;;;;5045124;28;20234;-86
2021/04/10 03:18:36;;;;;;;11.70;10.50;;;;;;;;;;5057819;28;20291;-85
2021/04/10 03:21:05;;;;;;;12.20;10.77;;;;;;;;;;5052799;28;20311;-86
2021/04/10 03:23:35;;;;;;;12.83;11.40;;;;;;;;;;5050299;28;20210;-86
2021/04/10 03:26:04;;;;;;;12.90;10.40;;;;;;;;;;5039018;28;20236;-86
2021/04/10 03:28:32;;;;;;;13.17;10.73;;;;;;;;;;5042604;28;20307;-86
2021/04/10 03:31:02;;;;;;;12.87;10.83;;;;;;;;;;5044494;28;20195;-86
2021/04/10 03:33:30;;;;;;;13.10;10.40;;;;;;;;;;5044984;28;20230;-86
2021/04/10 03:35:58;;;;;;;12.57;10.50;;;;;;;;;;5037978;28;20292;-87
2021/04/10 03:38:26;;;;;;;11.37;9.87;;;;;;;;;;5043052;28;20212;-86
2021/04/10 03:40:55;;;;;;;11.10;10.00;;;;;;;;;;5052853;28;20286;-86
2021/04/10 03:43:22;;;;;;;11.27;9.27;;;;;;;;;;5045088;28;20551;-87
2021/04/10 03:45:50;;;;;;;13.80;9.97;;;;;;;;;;5052752;28;20238;-87
2021/04/10 03:48:18;;;;;;;11.27;10.07;;;;;;;;;;5039559;28;20215;-86
2021/04/10 03:50:46;;;;;;;11.37;10.17;;;;;;;;;;5057205;28;20734;-87
2021/04/10 03:53:13;;;;;;;12.70;10.40;;;;;;;;;;5037556;28;20295;-86
2021/04/10 03:55:41;;;;;;;14.00;11.40;;;;;;;;;;5047277;28;20575;-86
2021/04/10 03:58:09;;;;;;;13.23;11.00;;;;;;;;;;5046482;28;20206;-86
2021/04/10 04:00:36;;;;;;;13.63;10.90;;;;;;;;;;5032714;28;20211;-86
2021/04/10 04:03:04;;;;;;;12.33;9.77;;;;;;;;;;5039137;28;20212;-86
2021/04/10 04:05:31;;;;;;;13.57;10.90;;;;;;;;;;5048526;28;20694;-86
2021/04/10 04:07:59;;;;;;;14.90;12.33;;;;;;;;;;5052482;28;20204;-86
2021/04/10 04:10:27;;;;;;;16.57;12.10;;;;;;;;;;5043852;28;20725;-86
2021/04/10 04:12:54;;;;;;;17.33;13.33;;;;;;;;;;5043136;28;20306;-86
2021/04/10 04:15:23;;;;;;;16.57;12.87;;;;;;;;;;5036080;28;20571;-86
2021/04/10 04:17:51;;;;;;;17.10;12.63;;;;;;;;;;5048063;28;20280;-86
2021/04/10 04:20:19;;;;;;;14.77;12.23;;;;;;;;;;5038963;28;20308;-86
2021/04/10 04:22:46;;;;;;;17.90;13.70;;;;;;;;;;5049294;28;20289;-85
2021/04/10 04:25:15;;;;;;;17.27;13.03;;;;;;;;;;5043863;28;20231;-86
2021/04/10 04:27:43;;;;;;;19.27;14.37;;;;;;;;;;5032593;28;20240;-86
2021/04/10 04:30:13;;;;;;;20.97;14.17;;;;;;;;;;5037322;28;20263;-86
2021/04/10 04:32:42;;;;;;;18.37;13.47;;;;;;;;;;5044154;28;20228;-86
2021/04/10 04:35:10;;;;;;;18.97;15.03;;;;;;;;;;5039273;28;20688;-85
2021/04/10 04:37:39;;;;;;;18.33;14.17;;;;;;;;;;5043374;28;20291;-86
2021/04/10 04:40:07;;;;;;;19.47;14.20;;;;;;;;;;5042013;28;20199;-86
2021/04/10 04:42:35;;;;;;;18.67;14.23;;;;;;;;;;5048537;28;20237;-85
2021/04/10 04:45:03;;;;;;;19.53;13.20;;;;;;;;;;5042137;28;20665;-86
2021/04/10 04:47:31;;;;;;;17.87;14.27;;;;;;;;;;5047651;28;20287;-86
2021/04/10 04:50:00;;;;;;;22.73;15.00;;;;;;;;;;5035843;28;20339;-86
2021/04/10 04:52:30;;;;;;;22.00;15.63;;;;;;;;;;5038576;28;20630;-85
2021/04/10 04:54:58;;;;;;;22.03;16.37;;;;;;;;;;5041268;28;20220;-85
2021/04/10 04:57:25;;;;;;;23.70;15.97;;;;;;;;;;5044285;28;20614;-86
2021/04/10 04:59:53;;;;;;;19.97;16.03;;;;;;;;;;5048098;28;20286;-85
2021/04/10 05:02:20;;;;;;;20.93;16.80;;;;;;;;;;5036485;28;20224;-85
2021/04/10 05:04:48;;;;;;;20.40;16.23;;;;;;;;;;5050013;28;20196;-84
2021/04/10 05:07:17;;;;;;;22.30;17.43;;;;;;;;;;5043081;28;20204;-83
2021/04/10 05:09:45;;;;;;;22.03;14.90;;;;;;;;;;5042985;28;20258;-85
2021/04/10 05:12:13;;;;;;;22.47;17.10;;;;;;;;;;5046425;28;20302;-86
2021/04/10 05:14:41;;;;;;;23.53;16.83;;;;;;;;;;5039828;28;20211;-85
2021/04/10 05:17:09;;;;;;;23.13;17.13;;;;;;;;;;5039330;28;20199;-85
2021/04/10 05:19:37;;;;;;;22.87;17.90;;;9.20;99.90;;;;;;5049728;28;20241;-84
2021/04/10 05:22:05;;;;;;;23.33;17.77;;;;;;;;;;5040276;28;20695;-84
2021/04/10 05:24:34;;;;;;;22.80;18.30;;;9.20;99.90;;;;;;5044548;28;20192;-85
2021/04/10 05:27:03;;;;;;;24.47;17.67;;;9.20;99.90;;;;;;5040440;28;20230;-85
2021/04/10 05:29:31;;;;;;;23.17;17.60;;;;;;;;;;5044659;28;20248;-84
2021/04/10 05:32:00;;;;;;;24.63;18.17;;;9.20;99.90;;;;;;5037877;28;20244;-85
2021/04/10 05:34:29;;;;;;;23.27;17.53;;;9.20;99.90;;;;;;5044870;28;20231;-84
2021/04/10 05:36:57;;;;;;;23.30;18.00;;;9.20;99.90;;;;;;5045605;28;20232;-85
2021/04/10 05:39:26;;;;;;;24.43;18.47;;;9.20;99.90;;;;;;5046332;28;20222;-84
2021/04/10 05:41:56;;;;;;;21.63;17.13;;;9.20;99.90;;;;;;5047029;28;20221;-85
2021/04/10 05:44:24;;;;;;;24.90;17.93;;;9.20;99.90;;;;;;5046083;28;20203;-85
2021/04/10 05:46:53;;;;;;;27.87;19.13;;;9.30;99.90;;;;;;5039055;28;20255;-85
2021/04/10 05:49:21;;;;;;;23.97;17.37;;;9.20;99.90;;;;;;5041997;28;20679;-84
2021/04/10 05:51:50;;;;;;;24.27;18.80;;;9.30;99.90;;;;;;5044900;28;20189;-85
2021/04/10 05:54:18;;;;;;;26.40;18.47;;;9.30;99.90;;;;;;5038699;28;20211;-85
2021/04/10 05:56:52;;;;;;;26.17;19.20;;;9.30;99.90;;;;;;5039492;28;20193;-85
2021/04/10 05:59:22;;;;;;;29.03;19.17;;;9.30;99.90;;;;;;5043992;28;20201;-85
2021/04/10 06:01:50;;;;;;;26.70;19.30;;;9.30;99.90;;;;;;5047578;28;20201;-85
2021/04/10 06:04:22;;;;;;;27.80;19.00;;;9.40;99.90;;;;;;5036821;28;20289;-85
2021/04/10 06:06:50;;;;;;;26.77;18.70;;;9.40;99.90;;;;;;5046496;28;20278;-85
2021/04/10 06:09:19;;;;;;;23.10;18.63;;;9.40;99.90;;;;;;5049643;28;20245;-86
2021/04/10 06:11:48;;;;;;;27.93;19.27;;;9.40;99.90;;;;;;5040391;28;20249;-86
2021/04/10 06:14:16;;;;;;;25.90;18.67;;;9.50;99.90;;;;;;5049306;28;20315;-85
2021/04/10 06:16:46;;;;;;;27.13;18.60;;;9.50;99.90;;;;;;5051245;28;20201;-86
2021/04/10 06:19:15;;;;;;;27.43;18.77;;;9.50;99.90;;;;;;5050517;28;20206;-85
2021/04/10 06:21:43;;;;;;;25.73;18.03;;;9.50;99.90;;;;;;5047553;28;20229;-85
2021/04/10 06:24:15;;;;;;;27.77;18.30;;;9.60;99.90;;;;;;5045603;28;20686;-84
2021/04/10 06:26:43;;;;;;;26.23;18.00;;;9.60;99.90;;;;;;5039120;28;20205;-85
2021/04/10 06:29:12;;;;;;;27.63;18.17;;;9.60;99.90;;;;;;5059660;28;20223;-86
2021/04/10 06:31:41;;;;;;;24.33;17.93;;;9.60;99.90;;;;;;5041774;28;20673;-85
2021/04/10 06:34:11;;;;;;;23.80;17.97;;;9.70;99.90;;;;;;5042282;28;20216;-85
2021/04/10 06:36:40;;;;;;;28.83;18.13;;;9.70;99.90;;;;;;5035655;28;20204;-85
2021/04/10 06:39:08;;;;;;;22.57;17.07;;;9.80;99.90;;;;;;5049060;28;20230;-85
2021/04/10 06:41:38;;;;;;;23.70;17.53;;;9.80;99.90;;;;;;5042995;28;20206;-85
2021/04/10 06:44:07;;;;;;;24.33;17.60;;;9.80;99.90;;;;;;5044766;28;20235;-85
2021/04/10 06:46:37;;;;;;;25.00;16.17;;;9.80;99.90;;;;;;5049889;28;20653;-84
2021/04/10 06:49:09;;;;;;;20.87;16.00;;;9.90;99.90;;;;;;5041294;28;20208;-85
2021/04/10 06:51:39;;;;;;;21.83;16.60;;;9.90;99.90;;;;;;5042370;28;20264;-85
2021/04/10 06:54:14;;;;;;;23.10;16.20;;;10.00;99.90;;;;;;5053476;28;20204;-85
2021/04/10 06:56:50;;;;;;;18.17;15.53;;;10.00;99.90;;;;;;5052028;28;20285;-83
2021/04/10 06:59:23;;;;;;;22.87;14.87;;;;;;;;;;5052021;28;20198;-83
2021/04/10 07:01:53;;;;;;;21.17;15.90;;;10.10;99.90;;;;;;5036913;28;20201;-82
2021/04/10 07:04:23;;;;;;;21.67;15.53;;;10.20;99.90;;;;;;5041522;28;20748;-84
2021/04/10 07:06:51;;;;;;;23.33;15.67;;;;;;;;;;5033664;28;20214;-83
2021/04/10 07:09:20;;;;;;;23.37;16.17;;;10.30;99.90;;;;;;5036604;28;20265;-84
2021/04/10 07:11:50;;;;;;;19.50;16.63;;;;;;;;;;5053023;28;20226;-89
2021/04/10 07:14:19;;;;;;;22.00;16.30;;;;;;;;;;5035601;28;20287;-88
2021/04/10 07:16:48;;;;;;;20.57;15.60;;;10.30;99.90;;;;;;5043624;28;20233;-87
2021/04/10 07:22:26;;;;;;;17.20;14.17;;;10.40;99.90;;;;;;5067405;28;20199;-92
2021/04/10 07:25:03;;;;;;;20.73;15.53;;;;;;;;;;5059013;28;20211;-92
2021/04/10 07:27:34;;;;;;;17.47;15.23;;;;;;;;;;5054825;28;20754;-87
2021/04/10 07:30:03;;;;;;;19.43;14.20;;;;;;;;;;5053595;28;20303;-90
2021/04/10 07:32:33;;;;;;;18.20;13.27;;;;;;;;;;5058360;28;20258;-85
2021/04/10 07:35:16;;;;;;;19.80;13.80;;;;;;;;;;5042636;28;20200;-89
2021/04/10 07:38:01;;;;;;;16.63;13.93;;;10.70;99.90;;;;;;5055911;28;20207;-83
2021/04/10 07:40:30;;;;;;;18.97;14.33;;;;;;;;;;5041547;28;20702;-84
2021/04/10 07:43:03;;;;;;;19.50;14.10;;;;;;;;;;5042720;28;20208;-84
2021/04/10 07:45:34;;;;;;;19.20;13.70;;;;;;;;;;5038336;28;20208;-86
2021/04/10 07:48:14;;;;;;;21.20;13.97;;;;;;;;;;5050699;28;20214;-89
2021/04/10 07:50:44;;;;;;;17.63;13.53;;;;;;;;;;5044540;28;20200;-84
2021/04/10 07:53:23;;;;;;;13.03;11.47;;;;;;;;;;5050408;28;20199;-76
2021/04/10 07:55:53;;;;;;;18.13;13.63;;;;;;;;;;5043400;28;20238;-76
2021/04/10 07:58:24;;;;;;;18.13;13.77;;;;;;;;;;5047081;28;20204;-77
2021/04/10 08:00:57;;;;;;;17.60;14.00;;;;;;;;;;5044999;28;20227;-77
2021/04/10 08:03:35;;;;;;;21.73;14.93;;;;;;;;;;5047985;28;20638;-77
2021/04/10 08:06:25;;;;;;;16.23;12.43;;;;;;;;;;5040547;28;20255;-77
2021/04/10 08:08:58;;;;;;;21.13;13.87;;;;;;;;;;5053228;28;20199;-78
2021/04/10 08:11:41;;;;;;;17.00;13.93;;;;;;;;;;5037583;28;20283;-77
2021/04/10 08:14:14;;;;;;;14.77;13.20;;;;;;;;;;5041737;28;20256;-77
2021/04/10 08:16:46;;;;;;;16.50;13.23;;;;;;;;;;5045781;28;20259;-77
2021/04/10 08:19:19;;;;;;;15.93;13.03;;;;;;;;;;5040822;28;20353;-77
2021/04/10 08:21:51;;;;;;;20.23;13.37;;;;;;;;;;5045405;28;20224;-77
2021/04/10 08:24:32;;;;;;;18.73;13.03;;;;;;;;;;5048224;28;20188;-77
2021/04/10 08:27:05;;;;;;;16.33;11.90;;;;;;;;;;5044684;28;20204;-77
2021/04/10 08:29:38;;;;;;;16.83;11.87;;;;;;;;;;5040216;28;20244;-77
2021/04/10 08:32:16;;;;;;;17.47;11.23;;;;;;;;;;5044349;28;20231;-79
2021/04/10 08:34:50;;;;;;;17.00;11.03;;;;;;;;;;5052325;28;20269;-79
2021/04/10 08:37:22;;;;;;;14.27;10.13;;;;;;;;;;5047557;28;20230;-79
2021/04/10 08:39:54;;;;;;;14.03;10.63;;;;;;;;;;5051896;28;20200;-76
2021/04/10 08:42:25;;;;;;;18.23;11.30;;;;;;;;;;5050281;28;20203;-76
2021/04/10 08:44:55;;;;;;;14.27;10.57;;;;;;;;;;5051462;28;20227;-77
2021/04/10 08:47:25;;;;;;;16.87;11.10;;;;;;;;;;5052111;28;20206;-76
2021/04/10 08:49:55;;;;;;;15.73;11.50;;;;;;;;;;5046016;28;20283;-76
2021/04/10 08:52:26;;;;;;;18.97;11.70;;;;;;;;;;5051481;28;20287;-77
2021/04/10 08:54:57;;;;;;;16.93;10.83;;;;;;;;;;5052135;28;20298;-78
2021/04/10 08:57:26;;;;;;;14.70;10.00;;;;;;;;;;5032065;28;20245;-76
2021/04/10 08:59:56;;;;;;;15.23;11.23;;;;;;;;;;5032193;28;20338;-76
2021/04/10 09:02:26;;;;;;;18.53;13.10;;;;;;;;;;5032497;28;20218;-79
2021/04/10 09:05:09;;;;;;;19.03;14.77;;;;;;;;;;5049128;28;20223;-78
2021/04/10 09:08:10;;;;;;;18.93;16.13;;;;;;;;;;5055483;28;20211;-77
2021/04/10 09:10:47;;;;;;;23.13;17.70;;;;;;;;;;5049822;28;20289;-78
2021/04/10 09:13:31;;;;;;;23.33;15.40;;;;;;;;;;5047079;28;20628;-77
2021/04/10 09:16:20;;;;;;;19.77;14.83;;;;;;;;;;5046684;28;20279;-78
2021/04/10 09:18:56;;;;;;;16.90;11.60;;;;;;;;;;4996437;28;20281;-78
2021/04/10 09:21:43;;;;;;;13.37;10.83;;;;;;;;;;4999427;28;20225;-78
2021/04/10 09:24:34;;;;;;;14.47;9.70;;;;;;;;;;5002322;28;20335;-78
2021/04/10 09:27:08;;;;;;;15.63;9.17;;;;;;;;;;5004325;28;20205;-80
2021/04/10 09:30:06;;;;;;;11.87;8.67;;;;;;;;;;5004196;28;20329;-79
2021/04/10 09:32:38;;;;;;;13.80;8.57;;;;;;;;;;4997783;28;20315;-76
2021/04/10 09:35:11;;;;;;;12.63;9.03;;;;;;;;;;5010027;28;20365;-76
2021/04/10 09:38:01;;;;;;;11.67;8.40;;;;;;;;;;4997903;28;20299;-77
2021/04/10 09:40:49;;;;;;;11.93;8.73;;;;;;;;;;4999051;28;20605;-77
2021/04/10 09:43:23;;;;;;;9.93;7.57;;;;;;;;;;5002284;28;20207;-76
2021/04/10 09:45:55;;;;;;;5.50;4.83;;;;;;;;;;5007071;28;20208;-77
2021/04/10 09:48:38;;;;;;;6.17;5.57;;;;;;;;;;5005605;28;20284;-76
2021/04/10 09:51:13;;;;;;;5.83;4.80;;;;;;;;;;4994680;28;20197;-76
2021/04/10 09:53:45;;;;;;;6.23;5.03;;;;;;;;;;5011994;28;20228;-77
2021/04/10 09:56:18;;;;;;;4.67;4.17;;;;;;;;;;5022800;28;20207;-76
2021/04/10 09:58:52;;;;;;;4.87;4.30;;;;;;;;;;5048081;28;20238;-76
2021/04/10 10:01:30;;;;;;;5.00;4.03;;;;;;;;;;5040525;28;20202;-76
2021/04/10 10:04:02;;;;;;;4.43;4.00;;;;;;;;;;5036395;28;20204;-76
2021/04/10 10:06:35;;;;;;;5.10;4.60;;;;;;;;;;5035271;28;20287;-77
2021/04/10 10:09:07;;;;;;;4.80;4.40;;;;;;;;;;5055751;28;20570;-76
2021/04/10 10:11:39;;;;;;;5.10;4.30;;;;;;;;;;5049895;28;20297;-76
2021/04/10 10:14:13;;;;;;;4.33;3.60;;;;;;;;;;5044314;28;20308;-78
2021/04/10 10:16:45;;;;;;;3.83;3.47;;;;;;;;;;5053047;28;20227;-76
2021/04/10 10:19:24;;;;;;;3.30;3.00;;;;;;;;;;5046990;28;20288;-76
2021/04/10 10:21:53;;;;;;;3.97;3.20;;;;;;;;;;5049611;28;20262;-76
2021/04/10 10:24:23;;;;;;;2.70;2.50;;;;;;;;;;5037211;28;20198;-76
2021/04/10 10:26:52;;;;;;;2.93;2.63;;;11.80;99.90;;;;;;5051406;28;20198;-76
2021/04/10 10:29:22;;;;;;;2.67;2.47;;;;;;;;;;5048572;28;20348;-76
2021/04/10 10:31:52;;;;;;;3.00;1.60;;;;;;;;;;5044683;28;20293;-76
2021/04/10 10:34:22;;;;;;;1.97;1.77;;;;;;;;;;5046119;28;20245;-76
2021/04/10 10:36:52;;;;;;;4.60;2.70;;;;;;;;;;5041916;28;20219;-76
2021/04/10 10:39:30;;;;;;;2.57;1.67;;;;;;;;;;5060477;28;20222;-76
2021/04/10 10:41:59;;;;;;;2.77;1.90;;;;;;;;;;5053864;28;20290;-76
2021/04/10 10:44:30;;;;;;;2.73;1.87;;;;;;;;;;5046996;28;20299;-77
2021/04/10 10:47:00;;;;;;;2.37;2.00;;;;;;;;;;5035190;28;20201;-76
2021/04/10 10:49:29;;;;;;;2.23;1.93;;;;;;;;;;5042298;28;20212;-76
2021/04/10 10:51:59;;;;;;;2.17;1.53;;;;;;;;;;5040530;28;20200;-77
2021/04/10 10:54:34;;;;;;;1.67;1.53;;;;;;;;;;5049988;28;20200;-77
2021/04/10 10:57:08;;;;;;;3.20;2.40;;;;;;;;;;5052866;28;20309;-79
2021/04/10 10:59:38;;;;;;;2.40;1.83;;;;;;;;;;5042361;28;20596;-77
2021/04/10 11:02:07;;;;;;;2.37;1.90;;;;;;;;;;5043513;28;20723;-76
2021/04/10 11:04:38;;;;;;;2.70;1.70;;;;;;;;;;5035551;28;20287;-77
2021/04/10 11:07:07;;;;;;;1.53;1.37;;;;;;;;;;5050592;28;20196;-77
2021/04/10 11:09:37;;;;;;;1.77;1.60;;;;;;;;;;5049691;28;20195;-77
2021/04/10 11:12:07;;;;;;;1.60;1.50;;;;;;;;;;5044625;28;20199;-77
2021/04/10 11:14:41;;;;;;;2.17;1.43;;;;;;;;;;5071654;28;20281;-77
2021/04/10 11:17:12;;;;;;;2.03;1.60;;;;;;;;;;5038989;28;20317;-77
2021/04/10 11:19:43;;;;;;;1.93;1.60;;;;;;;;;;5061740;28;20226;-77
2021/04/10 11:22:19;;;;;;;1.70;1.57;;;;;;;;;;5046725;28;20687;-77
2021/04/10 11:24:52;;;;;;;1.93;1.50;;;;;;;;;;5051325;28;20278;-77
2021/04/10 11:27:23;;;;;;;1.93;1.83;;;;;;;;;;5050767;28;20233;-77
2021/04/10 11:29:53;;;;;;;2.20;1.80;;;;;;;;;;5056705;28;20203;-79
2021/04/10 11:32:24;;;;;;;1.97;1.87;;;;;;;;;;5039964;28;20315;-78
2021/04/10 11:35:14;;;;;;;1.93;1.83;;;;;;;;;;5035224;28;20210;-77
2021/04/10 11:37:51;;;;;;;2.23;2.03;;;;;;;;;;5046112;28;20327;-77
2021/04/10 11:40:27;;;;;;;2.10;1.90;;;;;;;;;;5044790;28;20259;-77
2021/04/10 11:42:57;;;;;;;2.50;2.20;;;;;;;;;;5048160;28;20285;-81
2021/04/10 11:45:28;;;;;;;2.70;2.50;;;;;;;;;;5046702;28;20675;-77
2021/04/10 11:48:17;;;;;;;3.70;2.67;;;;;;;;;;5044593;28;20228;-77
2021/04/10 11:50:48;;;;;;;3.17;2.87;;;;;;;;;;5049616;28;20204;-77
2021/04/10 11:53:18;;;;;;;3.40;3.10;;;;;;;;;;5043694;28;20207;-77
2021/04/10 11:55:47;;;;;;;3.50;3.20;;;;;;;;;;5043656;28;20291;-78
2021/04/10 11:58:16;;;;;;;3.90;3.53;;;;;;;;;;5031821;28;20319;-77
2021/04/10 12:00:45;;;;;;;4.07;3.77;;;;;;;;;;5042404;28;20283;-77
2021/04/10 12:03:16;;;;;;;4.47;3.43;;;;;;;;;;5035429;28;20629;-77
2021/04/10 12:05:47;;;;;;;3.83;3.53;;;;;;;;;;5040796;28;20246;-77
2021/04/10 12:08:25;;;;;;;3.57;3.27;;;;;;;;;;5043113;28;20634;-78
2021/04/10 12:10:55;;;;;;;3.83;3.43;;;;;;;;;;5045903;28;20253;-79
2021/04/10 12:13:25;;;;;;;3.03;2.83;;;;;;;;;;5051315;28;20330;-78
2021/04/10 12:15:55;;;;;;;3.50;3.20;;;;;;;;;;5032953;28;20643;-79
2021/04/10 12:18:25;;;;;;;3.97;3.60;;;;;;;;;;5037900;28;20311;-79
2021/04/10 12:20:55;;;;;;;4.40;3.53;;;;;;;;;;5042383;28;20224;-79
2021/04/10 12:23:25;;;;;;;4.23;3.83;;;;;;;;;;5032255;28;20291;-78
2021/04/10 12:25:55;;;;;;;4.00;3.70;;;;;;;;;;5032845;28;20224;-78
2021/04/10 12:28:25;;;;;;;3.70;3.40;;;;;;;;;;5059446;28;20206;-79
2021/04/10 12:30:53;;;;;;;3.07;2.83;;;;;;;;;;5048217;28;20254;-78
2021/04/10 12:33:22;;;;;;;5.00;3.83;;;;;;;;;;5051734;28;20334;-79
2021/04/10 12:35:51;;;;;;;4.63;4.23;;;;;;;;;;5043149;28;20282;-80
2021/04/10 12:38:21;;;;;;;4.90;4.40;;;;;;;;;;5049131;28;20221;-80
2021/04/10 12:40:49;;;;;;;4.73;4.33;;;;;;;;;;5060586;28;20251;-79
2021/04/10 12:43:18;;;;;;;4.80;4.13;;;;;;;;;;5057539;28;20287;-80
2021/04/10 12:45:47;;;;;;;4.47;4.07;;;;;;;;;;5057607;28;20574;-79
2021/04/10 12:48:15;;;;;;;5.60;4.40;;;;;;;;;;5048953;28;20626;-80
2021/04/10 12:50:44;;;;;;;6.70;5.23;;;;;;;;;;5055228;28;20280;-79
2021/04/10 12:53:13;;;;;;;6.30;5.03;;;;;;;;;;5055169;28;20235;-80
2021/04/10 12:55:42;;;;;;;6.17;5.30;;;;;;;;;;5056155;28;20197;-80
2021/04/10 12:58:11;;;;;;;5.77;5.10;;;;;;;;;;5053779;28;20713;-79
2021/04/10 13:00:40;;;;;;;4.80;4.40;;;;;;;;;;5046151;28;20287;-79
2021/04/10 13:03:09;;;;;;;4.63;4.20;;;;;;;;;;5051927;28;20627;-79
2021/04/10 13:05:37;;;;;;;4.70;4.30;;;;;;;;;;5049909;28;20286;-79
2021/04/10 13:08:06;;;;;;;4.67;4.27;;;;;;;;;;5055340;28;20286;-79
2021/04/10 13:10:36;;;;;;;4.23;3.87;;;;;;;;;;5051986;28;20213;-79
2021/04/10 13:13:06;;;;;;;5.07;4.60;;;;;;;;;;5054545;28;20655;-79
2021/04/10 13:15:34;;;;;;;4.77;4.37;;;;;;;;;;5044209;28;20202;-80
2021/04/10 13:18:03;;;;;;;4.57;4.03;;;;;;;;;;5051950;28;20322;-80
2021/04/10 13:20:32;;;;;;;5.83;5.00;;;;;;;;;;5055582;28;20508;-80
2021/04/10 13:23:01;;;;;;;4.37;3.97;;;;;;;;;;5057185;28;20698;-80
2021/04/10 13:25:30;;;;;;;4.47;4.07;;;;;;;;;;5057274;28;20200;-79
2021/04/10 13:27:59;;;;;;;4.20;3.90;;;;;;;;;;5056692;28;20201;-80
2021/04/10 13:30:29;;;;;;;4.53;4.13;;;;;;;;;;5056694;28;20199;-80
2021/04/10 13:33:13;;;;;;;4.63;3.87;;;;;;;;;;5056338;28;20233;-80
2021/04/10 13:38:59;;;;;;;4.70;4.30;;;;;;;;;;5049359;28;20227;-80
2021/04/10 13:41:31;;;;;;;4.80;4.40;;;;;;;;;;5060045;28;20198;-79
2021/04/10 13:44:00;;;;;;;5.17;4.77;;;;;;;;;;5061914;28;20217;-78
2021/04/10 13:46:30;;;;;;;5.17;4.67;;;;;;;;;;5049293;28;20270;-80
2021/04/10 13:48:58;;;;;;;4.70;4.30;;;;;;;;;;5046972;28;20205;-82
2021/04/10 13:51:27;;;;;;;4.43;4.10;;;;;;;;;;5046982;28;20270;-81
2021/04/10 13:53:56;;;;;;;4.60;4.20;;;;;;;;;;5045698;28;20210;-81
2021/04/10 13:56:25;;;;;;;5.30;4.80;;;;;;;;;;5052889;28;20223;-81
2021/04/10 13:58:54;;;;;;;5.10;4.60;;;;;;;;;;5046524;28;20557;-81
2021/04/10 14:01:23;;;;;;;4.93;4.30;;;;;;;;;;5056533;28;20203;-81
2021/04/10 14:03:56;;;;;;;4.80;4.30;;;;;;;;;;5055074;28;20206;-82
2021/04/10 14:06:27;;;;;;;4.87;4.20;;;;;;;;;;5054216;28;20203;-81
2021/04/10 14:08:56;;;;;;;4.13;3.73;;;;;;;;;;5044145;28;20196;-82
2021/04/10 14:11:25;;;;;;;4.17;3.77;;;;;;;;;;5058317;28;20555;-82
2021/04/10 14:13:54;;;;;;;4.50;4.10;;;;;;;;;;5048786;28;20219;-82
2021/04/10 14:16:23;;;;;;;4.90;4.50;;;;;;;;;;5062657;28;20215;-82
2021/04/10 14:18:52;;;;;;;5.43;4.93;;;;;;;;;;5044170;28;20227;-82
2021/04/10 14:21:22;;;;;;;5.07;4.67;;;;;;;;;;5039735;28;20204;-82
2021/04/10 14:23:53;;;;;;;5.77;5.17;;;;;;;;;;5047217;28;20677;-82
2021/04/10 14:26:23;;;;;;;5.60;5.10;;;;;;;;;;5049432;28;20209;-83
2021/04/10 14:28:54;;;;;;;5.77;5.27;;;;;;;;;;5037115;28;20276;-82
2021/04/10 14:31:24;;;;;;;5.40;4.90;;;;;;;;;;5052882;28;20194;-82
2021/04/10 14:33:53;;;;;;;5.80;5.20;;;;;;;;;;5054414;28;20585;-82
2021/04/10 14:36:23;;;;;;;6.40;5.80;;;;;;;;;;5053574;28;20202;-82
2021/04/10 14:38:55;;;;;;;5.63;5.13;;;;;;;;;;5051260;28;20219;-81